createdAt,value
2019-01-24T00:01:04.636Z,37.48
2019-01-24T00:03:33.958Z,34.58
2019-01-24T00:06:03.312Z,35.65
2019-01-24T00:08:32.628Z,35.63
2019-01-24T00:11:01.924Z,33.70
2019-01-24T00:13:31.317Z,35.35
2019-01-24T00:16:00.710Z,35.45
2019-01-24T00:18:30.063Z,35.43
2019-01-24T00:20:59.382Z,36.15
2019-01-24T00:23:28.725Z,33.53
2019-01-24T00:25:58.052Z,34.95
2019-01-24T00:28:27.455Z,34.73
2019-01-24T00:30:56.923Z,37.50
2019-01-24T00:33:26.263Z,36.20
2019-01-24T00:35:55.607Z,36.63
2019-01-24T00:38:24.917Z,37.60
2019-01-24T00:40:54.268Z,37.28
2019-01-24T00:43:23.535Z,36.48
2019-01-24T00:45:52.857Z,34.92
2019-01-24T00:48:22.316Z,36.88
2019-01-24T00:50:51.718Z,34.05
2019-01-24T00:53:21.032Z,35.50
2019-01-24T00:55:50.384Z,35.75
2019-01-24T00:58:19.678Z,36.95
2019-01-24T01:00:49.072Z,34.40
2019-01-24T01:03:18.396Z,34.10
2019-01-24T01:05:47.787Z,36.10
2019-01-24T01:08:17.238Z,37.90
2019-01-24T01:10:46.586Z,35.48
2019-01-24T01:13:15.915Z,35.90
2019-01-24T01:15:45.295Z,36.00
2019-01-24T01:18:14.651Z,34.63
2019-01-24T01:20:44.224Z,35.58
2019-01-24T01:23:13.542Z,35.43
2019-01-24T01:25:42.883Z,35.90
2019-01-24T01:28:12.191Z,35.35
2019-01-24T01:30:41.481Z,34.95
2019-01-24T01:33:10.866Z,36.30
2019-01-24T01:35:40.193Z,35.35
2019-01-24T01:38:09.730Z,36.15
2019-01-24T01:40:39.022Z,35.75
2019-01-24T01:43:08.323Z,36.10
2019-01-24T01:45:37.636Z,34.90
2019-01-24T01:48:06.973Z,35.78
2019-01-24T01:50:36.326Z,35.90
2019-01-24T01:53:05.646Z,35.00
2019-01-24T01:55:35.006Z,36.03
2019-01-24T01:58:04.369Z,35.65
2019-01-24T02:00:33.834Z,34.67
2019-01-24T02:03:03.174Z,34.83
2019-01-24T02:05:32.485Z,34.35
2019-01-24T02:08:01.816Z,34.45
2019-01-24T02:10:31.214Z,34.58
2019-01-24T02:13:00.557Z,33.40
2019-01-24T02:15:29.997Z,34.88
2019-01-24T02:17:59.387Z,36.50
2019-01-24T02:20:28.678Z,37.35
2019-01-24T02:22:58.013Z,38.08
2019-01-24T02:25:27.314Z,38.53
2019-01-24T02:27:59.431Z,38.60
2019-01-24T02:30:30.173Z,38.10
2019-01-24T02:32:59.549Z,37.50
2019-01-24T02:35:28.911Z,36.42
2019-01-24T02:37:58.244Z,36.75
2019-01-24T02:40:27.583Z,36.30
2019-01-24T02:42:56.904Z,34.88
2019-01-24T02:45:26.228Z,36.10
2019-01-24T02:47:55.623Z,34.25
2019-01-24T02:50:25.056Z,34.88
2019-01-24T02:52:54.327Z,33.28
2019-01-24T02:55:23.629Z,35.80
2019-01-24T02:57:52.895Z,35.95
2019-01-24T03:00:22.911Z,34.23
2019-01-24T03:02:52.413Z,34.30
2019-01-24T03:05:22.701Z,36.60
2019-01-24T03:07:52.124Z,35.35
2019-01-24T03:10:21.687Z,35.35
2019-01-24T03:12:51.153Z,34.18
2019-01-24T03:15:21.770Z,34.83
2019-01-24T03:17:51.357Z,33.58
2019-01-24T03:20:20.775Z,35.98
2019-01-24T03:22:50.206Z,35.23
2019-01-24T03:25:20.030Z,36.05
2019-01-24T03:27:49.337Z,33.10
2019-01-24T03:30:20.590Z,34.80
2019-01-24T03:32:50.121Z,34.05
2019-01-24T03:35:25.142Z,33.58
2019-01-24T03:37:54.603Z,34.08
2019-01-24T03:40:24.042Z,34.30
2019-01-24T03:42:53.477Z,34.45
2019-01-24T03:45:22.758Z,35.73
2019-01-24T03:47:52.070Z,34.03
2019-01-24T03:50:22.379Z,36.88
2019-01-24T03:52:51.706Z,35.00
2019-01-24T03:55:22.187Z,34.23
2019-01-24T03:57:51.582Z,34.85
2019-01-24T04:00:25.218Z,36.15
2019-01-24T04:02:54.540Z,33.70
2019-01-24T04:05:24.029Z,34.00
2019-01-24T04:07:53.438Z,35.52
2019-01-24T04:10:23.102Z,35.60
2019-01-24T04:12:52.427Z,34.27
2019-01-24T04:15:27.266Z,34.23
2019-01-24T04:17:56.575Z,34.98
2019-01-24T04:20:25.875Z,33.35
2019-01-24T04:22:55.196Z,34.45
2019-01-24T04:25:24.697Z,36.48
2019-01-24T04:27:54.022Z,35.25
2019-01-24T04:30:41.249Z,34.75
2019-01-24T04:33:10.566Z,36.00
2019-01-24T04:35:40.048Z,34.43
2019-01-24T04:38:09.390Z,35.10
2019-01-24T04:40:38.675Z,35.03
2019-01-24T04:43:07.975Z,36.25
2019-01-24T04:45:37.302Z,34.98
2019-01-24T04:48:06.619Z,36.03
2019-01-24T04:50:35.962Z,34.65
2019-01-24T04:53:05.411Z,35.45
2019-01-24T04:55:34.699Z,35.28
2019-01-24T04:58:04.033Z,35.28
2019-01-24T05:00:33.374Z,36.17
2019-01-24T05:03:03.543Z,35.10
2019-01-24T05:05:32.904Z,36.53
2019-01-24T05:08:02.289Z,36.75
2019-01-24T05:10:31.607Z,33.73
2019-01-24T05:13:00.910Z,36.35
2019-01-24T05:15:30.459Z,34.48
2019-01-24T05:18:00.032Z,35.33
2019-01-24T05:20:29.548Z,36.85
2019-01-24T05:22:59.057Z,37.28
2019-01-24T05:25:28.576Z,36.03
2019-01-24T05:27:58.052Z,33.83
2019-01-24T05:30:28.864Z,35.58
2019-01-24T05:32:58.354Z,37.25
2019-01-24T05:35:34.487Z,37.03
2019-01-24T05:37:59.663Z,34.38
2019-01-24T05:40:29.128Z,40.10
2019-01-24T05:42:59.695Z,39.23
2019-01-24T05:45:29.144Z,36.13
2019-01-24T05:47:58.600Z,37.70
2019-01-24T05:50:28.113Z,36.93
2019-01-24T05:52:57.647Z,37.35
2019-01-24T05:55:46.066Z,34.70
2019-01-24T05:58:15.399Z,35.20
2019-01-24T06:00:46.247Z,38.92
2019-01-24T06:03:15.523Z,33.90
2019-01-24T06:05:44.850Z,77.67
2019-01-24T06:08:14.731Z,38.73
2019-01-24T06:10:44.057Z,51.35
2019-01-24T06:13:13.415Z,40.30
2019-01-24T06:15:42.759Z,37.45
2019-01-24T06:18:12.430Z,35.25
2019-01-24T06:20:41.743Z,38.60
2019-01-24T06:23:11.286Z,36.20
2019-01-24T06:25:40.735Z,35.48
2019-01-24T06:28:10.243Z,38.50
2019-01-24T06:30:39.555Z,37.88
2019-01-24T06:33:08.905Z,35.75
2019-01-24T06:35:38.255Z,36.75
2019-01-24T06:38:07.626Z,36.13
2019-01-24T06:40:36.928Z,36.88
2019-01-24T06:43:06.308Z,36.40
2019-01-24T06:45:35.727Z,37.17
2019-01-24T06:48:05.200Z,37.40
2019-01-24T06:50:34.515Z,37.15
2019-01-24T06:53:03.823Z,36.53
2019-01-24T06:55:33.154Z,37.85
2019-01-24T06:58:02.458Z,37.83
2019-01-24T07:00:31.975Z,37.70
2019-01-24T07:03:01.297Z,37.48
2019-01-24T07:05:30.621Z,37.73
2019-01-24T07:08:00.033Z,39.10
2019-01-24T07:10:29.503Z,36.33
2019-01-24T07:12:58.807Z,38.50
2019-01-24T07:15:28.206Z,38.23
2019-01-24T07:17:57.488Z,39.58
2019-01-24T07:20:26.838Z,39.95
2019-01-24T07:22:56.135Z,37.03
2019-01-24T07:25:27.758Z,39.25
2019-01-24T07:27:57.121Z,38.65
2019-01-24T07:30:26.618Z,36.90
2019-01-24T07:32:55.942Z,35.73
2019-01-24T07:35:25.270Z,39.78
2019-01-24T07:37:54.586Z,38.10
2019-01-24T07:40:23.891Z,38.60
2019-01-24T07:42:53.229Z,39.98
2019-01-24T07:45:39.866Z,39.33
2019-01-24T07:48:09.213Z,40.00
2019-01-24T07:50:38.568Z,36.17
2019-01-24T07:53:08.358Z,38.78
2019-01-24T07:55:37.792Z,39.73
2019-01-24T07:58:07.519Z,38.40
2019-01-24T08:00:36.882Z,36.20
2019-01-24T08:03:06.438Z,36.42
2019-01-24T08:05:35.774Z,35.70
2019-01-24T08:08:05.200Z,37.17
2019-01-24T08:10:34.606Z,35.33
2019-01-24T08:13:03.937Z,35.03
2019-01-24T08:15:33.267Z,37.05
2019-01-24T08:18:02.579Z,35.60
2019-01-24T08:20:31.906Z,37.25
2019-01-24T08:23:01.268Z,36.03
2019-01-24T08:25:30.554Z,35.15
2019-01-24T08:27:59.988Z,36.10
2019-01-24T08:30:31.463Z,35.85
2019-01-24T08:33:00.791Z,34.78
2019-01-24T08:35:30.128Z,35.40
2019-01-24T08:37:59.438Z,37.53
2019-01-24T08:40:28.932Z,35.00
2019-01-24T08:42:58.275Z,35.63
2019-01-24T08:45:27.621Z,36.10
2019-01-24T08:47:56.948Z,38.33
2019-01-24T08:50:26.453Z,36.35
2019-01-24T08:52:55.801Z,43.42
2019-01-24T08:55:38.130Z,36.75
2019-01-24T08:58:08.485Z,34.53
2019-01-24T09:00:38.056Z,37.05
2019-01-24T09:03:07.647Z,37.73
2019-01-24T09:05:40.097Z,37.28
2019-01-24T09:08:09.635Z,36.48
2019-01-24T09:10:40.073Z,35.25
2019-01-24T09:13:09.847Z,35.50
2019-01-24T09:15:41.574Z,38.00
2019-01-24T09:18:11.016Z,37.08
2019-01-24T09:20:40.518Z,34.88
2019-01-24T09:23:10.318Z,31.73
2019-01-24T09:25:40.020Z,30.25
2019-01-24T09:28:14.869Z,31.45
2019-01-24T09:30:40.841Z,32.20
2019-01-24T09:33:10.380Z,32.08
2019-01-24T09:35:39.941Z,30.35
2019-01-24T09:38:09.447Z,28.98
2019-01-24T09:40:38.954Z,27.70
2019-01-24T09:43:08.469Z,28.47
2019-01-24T09:45:38.110Z,30.32
2019-01-24T09:48:08.740Z,31.50
2019-01-24T09:50:38.585Z,30.27
2019-01-24T09:53:08.131Z,46.68
2019-01-24T09:55:37.666Z,39.73
2019-01-24T09:58:07.310Z,35.83
2019-01-24T10:00:37.912Z,37.35
2019-01-24T10:03:07.871Z,30.90
2019-01-24T10:05:37.271Z,32.55
2019-01-24T10:08:08.009Z,36.93
2019-01-24T10:10:37.484Z,39.45
2019-01-24T10:13:07.249Z,32.65
2019-01-24T10:15:36.767Z,37.30
2019-01-24T10:18:06.366Z,29.55
2019-01-24T10:20:36.294Z,30.72
2019-01-24T10:23:06.191Z,35.00
2019-01-24T10:25:38.091Z,34.73
2019-01-24T10:28:08.557Z,35.70
2019-01-24T10:30:42.734Z,25.88
2019-01-24T10:33:09.567Z,30.20
2019-01-24T10:35:39.142Z,34.58
2019-01-24T10:38:08.744Z,31.00
2019-01-24T10:40:38.287Z,30.37
2019-01-24T10:43:07.917Z,31.07
2019-01-24T10:45:37.387Z,34.33
2019-01-24T10:48:07.465Z,29.00
2019-01-24T10:50:36.963Z,28.47
2019-01-24T10:53:06.952Z,30.00
2019-01-24T10:55:36.409Z,30.55
2019-01-24T10:58:06.979Z,29.80
2019-01-24T11:00:43.787Z,28.77
2019-01-24T11:03:17.659Z,28.55
2019-01-24T11:05:47.330Z,28.87
2019-01-24T11:08:17.096Z,32.10
2019-01-24T11:10:46.613Z,30.95
2019-01-24T11:13:16.183Z,31.85
2019-01-24T11:15:45.701Z,33.40
2019-01-24T11:18:15.184Z,32.60
2019-01-24T11:20:44.649Z,31.93
2019-01-24T11:23:14.087Z,36.40
2019-01-24T11:25:43.582Z,34.78
2019-01-24T11:28:13.046Z,34.33
2019-01-24T11:30:42.551Z,30.45
2019-01-24T11:33:12.142Z,29.92
2019-01-24T11:35:41.699Z,29.10
2019-01-24T11:38:11.192Z,31.12
2019-01-24T11:40:40.738Z,28.55
2019-01-24T11:43:10.142Z,29.65
2019-01-24T11:45:41.855Z,29.72
2019-01-24T11:48:12.493Z,29.10
2019-01-24T11:50:42.015Z,27.62
2019-01-24T11:53:11.557Z,29.02
2019-01-24T11:55:41.118Z,29.77
2019-01-24T11:58:16.844Z,27.85
2019-01-24T12:01:04.612Z,30.05
2019-01-24T12:03:34.123Z,30.10
2019-01-24T12:06:03.970Z,30.70
2019-01-24T12:08:33.542Z,30.70
2019-01-24T12:11:03.094Z,29.10
2019-01-24T12:13:33.876Z,29.27
2019-01-24T12:16:03.732Z,27.77
2019-01-24T12:18:33.244Z,28.30
2019-01-24T12:21:02.771Z,29.57
2019-01-24T12:23:32.270Z,29.00
2019-01-24T12:26:01.812Z,29.70
2019-01-24T12:28:31.954Z,31.35
2019-01-24T12:31:01.651Z,30.43
2019-01-24T12:33:31.275Z,32.13
2019-01-24T12:36:00.868Z,29.87
2019-01-24T12:38:30.372Z,30.50
2019-01-24T12:40:59.929Z,31.37
2019-01-24T12:43:29.566Z,32.28
2019-01-24T12:45:59.174Z,31.82
2019-01-24T12:48:28.752Z,30.70
2019-01-24T12:50:59.957Z,45.55
2019-01-24T12:53:29.594Z,30.75
2019-01-24T12:55:59.099Z,30.32
2019-01-24T12:58:28.685Z,31.48
2019-01-24T13:01:03.310Z,30.55
2019-01-24T13:03:33.865Z,31.77
2019-01-24T13:06:03.415Z,31.45
2019-01-24T13:08:33.117Z,32.60
2019-01-24T13:11:03.837Z,30.12
2019-01-24T13:13:33.404Z,31.12
2019-01-24T13:16:02.991Z,32.35
2019-01-24T13:18:32.640Z,31.50
2019-01-24T13:21:02.163Z,31.62
2019-01-24T13:23:31.671Z,32.85
2019-01-24T13:26:01.252Z,33.45
2019-01-24T13:28:30.878Z,34.50
2019-01-24T13:31:00.432Z,36.38
2019-01-24T13:33:30.133Z,34.18
2019-01-24T13:35:59.715Z,34.35
2019-01-24T13:38:29.490Z,34.30
2019-01-24T13:40:59.006Z,37.33
2019-01-24T13:43:28.575Z,40.45
2019-01-24T13:45:58.165Z,45.15
2019-01-24T13:48:27.723Z,34.63
2019-01-24T13:50:57.375Z,36.38
2019-01-24T13:53:26.879Z,38.13
2019-01-24T13:55:56.445Z,34.10
2019-01-24T13:58:26.137Z,35.15
2019-01-24T14:00:55.673Z,36.08
2019-01-24T14:03:31.705Z,36.55
2019-01-24T14:06:01.304Z,33.58
2019-01-24T14:08:31.035Z,35.17
2019-01-24T14:11:00.618Z,34.15
2019-01-24T14:13:30.252Z,33.30
2019-01-24T14:15:59.914Z,33.55
2019-01-24T14:18:29.548Z,34.25
2019-01-24T14:20:59.139Z,38.38
2019-01-24T14:23:28.644Z,35.03
2019-01-24T14:25:58.310Z,33.38
2019-01-24T14:28:27.960Z,33.95
2019-01-24T14:30:57.841Z,33.45
2019-01-24T14:33:27.413Z,37.08
2019-01-24T14:35:56.957Z,49.05
2019-01-24T14:38:26.484Z,40.25
2019-01-24T14:40:56.008Z,38.20
2019-01-24T14:43:26.136Z,38.25
2019-01-24T14:45:55.747Z,42.58
2019-01-24T14:48:25.328Z,36.83
2019-01-24T14:50:54.897Z,37.75
2019-01-24T14:53:24.430Z,33.80
2019-01-24T14:55:53.981Z,30.95
2019-01-24T14:58:55.580Z,31.27
2019-01-24T15:01:27.565Z,29.50
2019-01-24T15:03:57.127Z,30.68
2019-01-24T15:06:26.852Z,28.12
2019-01-24T15:08:57.572Z,28.80
2019-01-24T15:11:27.211Z,30.95
2019-01-24T15:13:56.930Z,29.57
2019-01-24T15:16:44.464Z,32.83
2019-01-24T15:19:14.193Z,28.62
2019-01-24T15:22:19.735Z,30.80
2019-01-24T15:24:49.368Z,27.15
2019-01-24T15:27:19.217Z,26.82
2019-01-24T15:29:50.366Z,27.65
2019-01-24T15:32:20.106Z,24.02
2019-01-24T15:34:50.624Z,23.92
2019-01-24T15:37:20.546Z,23.02
2019-01-24T15:39:50.587Z,24.65
2019-01-24T15:42:20.764Z,22.45
2019-01-24T15:44:50.711Z,21.00
2019-01-24T15:47:20.689Z,20.92
2019-01-24T15:49:50.740Z,20.65
2019-01-24T15:52:20.658Z,21.70
2019-01-24T15:54:50.478Z,18.37
2019-01-24T15:57:20.484Z,18.07
2019-01-24T15:59:50.861Z,18.05
2019-01-24T16:02:21.033Z,19.65
2019-01-24T16:04:52.352Z,19.98
2019-01-24T16:07:28.258Z,21.68
2019-01-24T16:10:06.835Z,23.45
2019-01-24T16:12:53.826Z,23.38
2019-01-24T16:15:43.473Z,21.65
2019-01-24T16:18:13.687Z,20.40
2019-01-24T16:20:43.841Z,20.50
2019-01-24T16:23:13.427Z,18.35
2019-01-24T16:25:43.428Z,18.10
2019-01-24T16:28:51.871Z,19.42
2019-01-24T16:31:21.876Z,19.50
2019-01-24T16:33:51.446Z,20.97
2019-01-24T16:36:22.104Z,18.35
2019-01-24T16:42:51.000Z,15.80
2019-01-24T16:45:25.274Z,17.57
2019-01-24T16:47:54.905Z,17.25
2019-01-24T16:50:25.599Z,18.65
2019-01-24T16:53:14.306Z,19.17
2019-01-24T16:56:20.078Z,20.23
2019-01-24T16:58:49.633Z,19.40
2019-01-24T17:01:21.621Z,18.85
2019-01-24T17:03:51.399Z,18.85
2019-01-24T17:06:20.932Z,20.35
2019-01-24T17:08:51.289Z,20.62
2019-01-24T17:11:20.887Z,20.77
2019-01-24T17:13:50.411Z,19.10
2019-01-24T17:16:19.931Z,23.05
2019-01-24T17:18:49.703Z,20.97
2019-01-24T17:21:55.164Z,19.20
2019-01-24T17:28:41.665Z,15.72
2019-01-24T17:31:11.225Z,16.70
2019-01-24T17:33:40.804Z,16.75
2019-01-24T17:36:10.429Z,22.85
2019-01-24T17:38:40.007Z,21.02
2019-01-24T17:41:09.658Z,21.70
2019-01-24T17:43:39.171Z,18.92
2019-01-24T17:46:08.994Z,15.95
2019-01-24T17:48:38.598Z,17.00
2019-01-24T17:51:08.159Z,17.67
2019-01-24T17:54:31.551Z,18.98
2019-01-24T17:57:00.993Z,17.73
2019-01-24T17:59:30.534Z,17.48
2019-01-24T18:01:59.974Z,17.10
2019-01-24T18:04:29.391Z,20.45
2019-01-24T18:06:58.931Z,18.37
2019-01-24T18:09:29.693Z,18.73
2019-01-24T18:11:59.243Z,17.42
2019-01-24T18:14:28.949Z,19.52
2019-01-24T18:16:58.432Z,19.42
2019-01-24T18:20:03.838Z,20.20
2019-01-24T18:23:09.054Z,18.57
2019-01-24T18:25:38.644Z,17.82
2019-01-24T18:28:09.684Z,20.35
2019-01-24T18:30:39.605Z,17.98
2019-01-24T18:33:09.001Z,18.37
2019-01-24T18:35:38.844Z,18.67
2019-01-24T18:38:09.220Z,20.08
2019-01-24T18:40:38.898Z,19.85
2019-01-24T18:43:26.650Z,18.15
2019-01-24T18:45:58.794Z,18.77
2019-01-24T18:48:28.621Z,18.62
2019-01-24T18:50:58.675Z,19.60
2019-01-24T18:53:28.314Z,19.75
2019-01-24T18:55:58.644Z,19.15
2019-01-24T18:58:28.397Z,19.10
2019-01-24T19:00:58.124Z,19.73
2019-01-24T19:03:27.749Z,18.37
2019-01-24T19:05:58.538Z,18.02
2019-01-24T19:08:32.851Z,17.67
2019-01-24T19:11:04.878Z,17.75
2019-01-24T19:13:34.543Z,16.90
2019-01-24T19:16:04.446Z,18.30
2019-01-24T19:18:34.091Z,17.60
2019-01-24T19:21:03.741Z,18.37
2019-01-24T19:23:33.360Z,17.40
2019-01-24T19:26:03.475Z,17.62
2019-01-24T19:28:33.311Z,17.67
2019-01-24T19:31:02.911Z,17.25
2019-01-24T19:33:32.640Z,19.60
2019-01-24T19:36:02.286Z,18.17
2019-01-24T19:38:32.073Z,19.57
2019-01-24T19:41:01.631Z,18.30
2019-01-24T19:43:32.350Z,17.98
2019-01-24T19:46:01.973Z,18.67
2019-01-24T19:48:31.591Z,17.65
2019-01-24T19:51:01.217Z,19.80
2019-01-24T19:53:30.834Z,18.60
2019-01-24T19:56:00.300Z,19.73
2019-01-24T19:58:30.035Z,18.23
2019-01-24T20:00:59.688Z,17.02
2019-01-24T20:03:31.408Z,18.15
2019-01-24T20:06:00.982Z,19.73
2019-01-24T20:08:30.559Z,18.27
2019-01-24T20:11:00.127Z,17.12
2019-01-24T20:13:29.706Z,18.32
2019-01-24T20:15:59.304Z,17.40
2019-01-24T20:18:28.831Z,18.00
2019-01-24T20:21:01.419Z,17.65
2019-01-24T20:23:31.172Z,17.45
2019-01-24T20:26:00.832Z,17.95
2019-01-24T20:28:30.425Z,18.75
2019-01-24T20:31:00.014Z,18.60
2019-01-24T20:33:29.682Z,18.67
2019-01-24T20:36:00.113Z,18.00
2019-01-24T20:38:47.710Z,17.37
2019-01-24T20:41:17.303Z,17.23
2019-01-24T20:43:47.058Z,17.15
2019-01-24T20:46:16.605Z,18.75
2019-01-24T20:48:49.073Z,16.87
2019-01-24T20:51:18.643Z,18.42
2019-01-24T20:53:48.237Z,16.20
2019-01-24T20:56:17.915Z,19.25
2019-01-24T20:58:47.373Z,19.10
2019-01-24T21:01:16.975Z,17.45
2019-01-24T21:03:46.570Z,18.70
2019-01-24T21:06:16.168Z,19.00
2019-01-24T21:08:45.697Z,19.17
2019-01-24T21:11:15.259Z,18.87
2019-01-24T21:13:44.876Z,19.70
2019-01-24T21:16:14.476Z,19.82
2019-01-24T21:18:44.142Z,19.10
2019-01-24T21:21:13.811Z,18.85
2019-01-24T21:23:43.314Z,18.62
2019-01-24T21:26:14.073Z,19.52
2019-01-24T21:28:43.716Z,20.20
2019-01-24T21:31:13.318Z,20.80
2019-01-24T21:33:42.970Z,21.75
2019-01-24T21:36:12.528Z,20.50
2019-01-24T21:38:42.039Z,18.92
2019-01-24T21:41:11.608Z,21.12
2019-01-24T21:43:44.012Z,20.85
2019-01-24T21:46:16.547Z,20.90
2019-01-24T21:48:46.094Z,20.40
2019-01-24T21:51:15.738Z,20.25
2019-01-24T21:53:45.332Z,20.62
2019-01-24T21:56:14.979Z,21.85
2019-01-24T21:58:44.669Z,20.57
2019-01-24T22:01:14.197Z,22.15
2019-01-24T22:03:43.806Z,19.48
2019-01-24T22:06:13.328Z,19.92
2019-01-24T22:08:42.863Z,21.70
2019-01-24T22:11:12.406Z,21.20
2019-01-24T22:13:41.934Z,20.90
2019-01-24T22:16:11.451Z,19.70
2019-01-24T22:18:40.987Z,20.72
2019-01-24T22:21:10.580Z,20.37
2019-01-24T22:23:40.484Z,18.40
2019-01-24T22:26:10.132Z,19.45
2019-01-24T22:28:45.526Z,18.57
2019-01-24T22:31:15.197Z,17.87
2019-01-24T22:33:44.753Z,18.27
2019-01-24T22:36:14.280Z,18.45
2019-01-24T22:38:43.754Z,19.35
2019-01-24T22:41:13.281Z,18.77
2019-01-24T22:43:42.932Z,19.67
2019-01-24T22:46:12.489Z,18.25
2019-01-24T22:48:42.051Z,20.00
2019-01-24T22:51:11.731Z,20.27
2019-01-24T22:53:41.234Z,19.00
2019-01-24T22:56:10.843Z,18.95
2019-01-24T22:58:40.363Z,20.12
2019-01-24T23:01:29.997Z,20.12
2019-01-24T23:04:07.462Z,20.40
2019-01-24T23:06:37.022Z,20.37
2019-01-24T23:09:10.199Z,20.40
2019-01-24T23:11:39.695Z,20.68
2019-01-24T23:14:09.604Z,18.87
2019-01-24T23:16:39.107Z,21.82
2019-01-24T23:19:08.720Z,20.55
2019-01-24T23:21:38.333Z,19.55
2019-01-24T23:24:07.872Z,19.90
2019-01-24T23:26:37.431Z,20.72
2019-01-24T23:29:07.075Z,19.00
2019-01-24T23:31:36.561Z,19.73
2019-01-24T23:34:06.913Z,19.25
2019-01-24T23:36:36.851Z,18.70
2019-01-24T23:39:09.794Z,20.32
2019-01-24T23:41:39.255Z,20.05
2019-01-24T23:44:08.790Z,21.62
2019-01-24T23:46:38.331Z,20.35
2019-01-24T23:49:07.895Z,24.70
2019-01-24T23:51:37.466Z,24.52
2019-01-24T23:54:07.066Z,25.65
